createdAt,value
2023-01-10T00:00:24.807Z,97154.72
2023-01-10T00:05:26.070Z,97164.91
2023-01-10T00:10:27.346Z,97178.13
2023-01-10T00:15:28.727Z,97183.53
2023-01-10T00:20:30.090Z,97194.69
2023-01-10T00:25:33.400Z,97201.22
2023-01-10T00:30:35.312Z,97199.06
2023-01-10T00:35:36.588Z,97212.63
2023-01-10T00:40:37.901Z,97227.19
2023-01-10T00:45:39.153Z,97229.66
2023-01-10T00:50:40.394Z,97240.16
2023-01-10T00:55:41.696Z,97245.19
2023-01-10T01:00:43.019Z,97261.56
2023-01-10T01:05:44.335Z,97264.13
2023-01-10T01:10:45.663Z,97273.63
2023-01-10T01:15:47.022Z,97277.66
2023-01-10T01:20:48.339Z,97287.28
2023-01-10T01:25:49.600Z,97305.00
2023-01-10T01:30:50.909Z,97305.53
2023-01-10T01:35:52.359Z,97320.56
2023-01-10T01:40:53.603Z,97327.19
2023-01-10T01:45:54.871Z,97327.59
2023-01-10T01:50:56.244Z,97325.34
2023-01-10T01:55:57.553Z,97339.50
2023-01-10T02:00:58.949Z,97346.81
2023-01-10T02:06:00.231Z,97348.53
2023-01-10T02:11:01.439Z,97359.53
2023-01-10T02:16:02.780Z,97365.94
2023-01-10T02:21:04.656Z,97377.56
2023-01-10T02:26:06.029Z,97376.06
2023-01-10T02:31:07.312Z,97378.38
2023-01-10T02:36:08.573Z,97381.69
2023-01-10T02:41:09.848Z,97394.56
2023-01-10T02:46:11.111Z,97395.16
2023-01-10T02:51:12.378Z,97398.16
2023-01-10T02:56:13.644Z,97413.50
2023-01-10T03:01:15.747Z,97423.91
2023-01-10T03:06:17.067Z,97429.13
2023-01-10T03:11:38.408Z,97442.06
2023-01-10T03:16:39.679Z,97437.25
2023-01-10T03:21:41.014Z,97441.16
2023-01-10T03:26:42.308Z,97448.81
2023-01-10T03:31:43.636Z,97455.69
2023-01-10T03:36:45.064Z,97463.63
2023-01-10T03:41:46.346Z,97485.72
2023-01-10T03:46:47.653Z,97487.91
2023-01-10T03:51:48.928Z,97504.19
2023-01-10T03:56:50.192Z,97510.81
2023-01-10T04:01:51.539Z,97520.91
2023-01-10T04:06:52.931Z,97520.72
2023-01-10T04:11:54.159Z,97525.69
2023-01-10T04:16:55.482Z,97535.88
2023-01-10T04:21:56.987Z,97541.84
2023-01-10T04:26:58.267Z,97554.28
2023-01-10T04:31:59.545Z,97563.22
2023-01-10T04:37:00.807Z,97572.84
2023-01-10T04:42:02.148Z,97584.94
2023-01-10T04:47:03.438Z,97602.22
2023-01-10T04:52:04.732Z,97604.13
2023-01-10T04:57:06.514Z,97614.59
2023-01-10T05:02:07.846Z,97628.53
2023-01-10T05:07:09.173Z,97638.84
2023-01-10T05:12:10.459Z,97641.00
2023-01-10T05:17:11.771Z,97663.75
2023-01-10T05:22:13.225Z,97670.84
2023-01-10T05:27:14.567Z,97683.16
2023-01-10T05:32:16.095Z,97690.53
2023-01-10T05:37:17.807Z,97704.16
2023-01-10T05:42:19.100Z,97714.84
2023-01-10T05:47:20.377Z,97721.66
2023-01-10T05:52:21.788Z,97729.91
2023-01-10T05:57:24.568Z,97737.56
2023-01-10T06:02:26.672Z,97750.03
2023-01-10T06:07:28.088Z,97767.06
2023-01-10T06:12:29.401Z,97770.09
2023-01-10T06:17:30.703Z,97791.19
2023-01-10T06:22:31.985Z,97797.59
2023-01-10T06:27:33.259Z,97816.06
2023-01-10T06:32:34.493Z,97826.22
2023-01-10T06:37:35.716Z,97833.81
2023-01-10T06:42:36.979Z,97849.38
2023-01-10T06:47:38.680Z,97863.28
2023-01-10T06:52:39.905Z,97875.75
2023-01-10T06:57:41.158Z,97897.06
2023-01-10T07:02:42.416Z,97907.09
2023-01-10T07:07:43.695Z,97916.94
2023-01-10T07:12:44.977Z,97920.78
2023-01-10T07:17:46.226Z,97941.31
2023-01-10T07:22:47.446Z,97958.25
2023-01-10T07:27:48.666Z,97979.59
2023-01-10T07:32:49.920Z,97979.22
2023-01-10T07:37:51.232Z,97995.53
2023-01-10T07:42:52.448Z,98004.78
2023-01-10T07:47:53.764Z,98012.75
2023-01-10T07:52:55.077Z,98025.84
2023-01-10T07:57:56.398Z,98032.97
2023-01-10T08:02:57.841Z,98033.38
2023-01-10T08:08:00.441Z,98038.38
2023-01-10T08:13:17.025Z,98039.22
2023-01-10T08:18:18.952Z,98048.75
2023-01-10T08:23:20.261Z,98067.75
2023-01-10T08:28:21.538Z,98080.34
2023-01-10T08:33:23.692Z,98091.06
2023-01-10T08:38:25.055Z,98098.00
2023-01-10T08:43:26.335Z,98107.28
2023-01-10T08:48:27.587Z,98111.69
2023-01-10T08:53:32.015Z,98121.47
2023-01-10T08:58:33.283Z,98139.09
2023-01-10T09:03:34.507Z,98142.72
2023-01-10T09:08:35.770Z,98135.16
2023-01-10T09:13:39.662Z,98138.97
2023-01-10T09:18:40.963Z,98156.13
2023-01-10T09:23:43.611Z,98163.91
2023-01-10T09:28:45.986Z,98176.22
2023-01-10T09:33:49.802Z,98184.19
2023-01-10T09:38:51.051Z,98179.91
2023-01-10T09:43:52.271Z,98180.34
2023-01-10T09:48:53.994Z,98193.41
2023-01-10T09:53:57.809Z,98216.69
2023-01-10T09:59:03.247Z,98224.56
2023-01-10T10:04:04.528Z,98227.06
2023-01-10T10:09:05.823Z,98236.72
2023-01-10T10:14:07.072Z,98242.66
2023-01-10T10:19:08.328Z,98225.31
2023-01-10T10:24:09.744Z,98232.34
2023-01-10T10:29:10.989Z,98229.53
2023-01-10T10:34:12.367Z,98216.06
2023-01-10T10:39:13.630Z,98216.19
2023-01-10T10:44:14.885Z,98234.88
2023-01-10T10:49:18.594Z,98231.59
2023-01-10T10:54:19.967Z,98230.41
2023-01-10T10:59:21.264Z,98236.34
2023-01-10T11:04:22.637Z,98228.06
2023-01-10T11:09:27.897Z,98224.22
2023-01-10T11:14:29.192Z,98221.41
2023-01-10T11:19:30.484Z,98215.88
2023-01-10T11:24:31.960Z,98233.84
2023-01-10T11:29:33.332Z,98238.00
2023-01-10T11:34:34.594Z,98259.16
2023-01-10T11:39:35.855Z,98251.97
2023-01-10T11:44:37.086Z,98247.63
2023-01-10T11:49:38.288Z,98223.78
2023-01-10T11:54:39.521Z,98230.28
2023-01-10T11:59:40.768Z,98229.34
2023-01-10T12:04:42.233Z,98218.25
2023-01-10T12:09:43.707Z,98225.78
2023-01-10T12:14:44.987Z,98238.94
2023-01-10T12:19:46.211Z,98217.25
2023-01-10T12:24:47.443Z,98230.38
2023-01-10T12:29:48.851Z,98231.63
2023-01-10T12:34:50.153Z,98217.16
2023-01-10T12:39:51.371Z,98214.25
2023-01-10T12:44:52.886Z,98226.69
2023-01-10T12:49:54.139Z,98228.69
2023-01-10T12:54:55.375Z,98221.25
2023-01-10T12:59:56.624Z,98221.34
2023-01-10T13:04:57.927Z,98231.00
2023-01-10T13:09:59.249Z,98223.19
2023-01-10T13:15:00.510Z,98218.31
2023-01-10T13:20:01.813Z,98225.00
2023-01-10T13:25:03.494Z,98205.69
2023-01-10T13:30:04.746Z,98205.09
2023-01-10T13:35:06.788Z,98201.13
2023-01-10T13:40:08.013Z,98199.69
2023-01-10T13:45:12.029Z,98202.28
2023-01-10T13:50:13.326Z,98192.13
2023-01-10T13:55:14.536Z,98196.41
2023-01-10T14:00:34.643Z,98205.38
2023-01-10T14:05:35.962Z,98193.88
2023-01-10T14:10:37.230Z,98183.19
2023-01-10T14:15:38.559Z,98179.59
2023-01-10T14:20:39.837Z,98178.00
2023-01-10T14:25:41.077Z,98186.28
2023-01-10T14:30:42.291Z,98177.63
2023-01-10T14:35:43.547Z,98180.34
2023-01-10T14:40:44.755Z,98182.66
2023-01-10T14:45:46.074Z,98189.38
2023-01-10T14:50:47.347Z,98201.63
2023-01-10T14:55:51.262Z,98202.34
2023-01-10T15:00:52.599Z,98199.50
2023-01-10T15:05:53.919Z,98194.81
2023-01-10T15:10:55.211Z,98193.34
2023-01-10T15:15:56.619Z,98207.00
2023-01-10T15:21:00.234Z,98201.59
2023-01-10T15:26:01.503Z,98201.38
2023-01-10T15:31:02.796Z,98206.69
2023-01-10T15:36:04.270Z,98214.22
2023-01-10T15:41:06.246Z,98229.22
2023-01-10T15:46:08.424Z,98225.91
2023-01-10T15:51:10.777Z,98221.22
2023-01-10T15:56:12.236Z,98234.69
2023-01-10T16:01:13.893Z,98244.16
2023-01-10T16:06:15.288Z,98242.31
2023-01-10T16:11:16.608Z,98245.66
2023-01-10T16:16:17.969Z,98242.88
2023-01-10T16:21:22.125Z,98238.78
2023-01-10T16:26:23.622Z,98235.44
2023-01-10T16:31:25.492Z,98229.44
2023-01-10T16:36:28.634Z,98236.50
2023-01-10T16:41:50.776Z,98236.47
2023-01-10T16:46:53.649Z,98233.75
2023-01-10T16:51:57.475Z,98235.31
2023-01-10T16:56:59.146Z,98235.13
2023-01-10T17:02:03.654Z,98232.81
2023-01-10T17:07:10.811Z,98235.69
2023-01-10T17:12:12.336Z,98232.03
2023-01-10T17:17:13.678Z,98223.91
2023-01-10T17:22:17.870Z,98213.75
2023-01-10T17:27:21.754Z,98201.84
2023-01-10T17:32:23.131Z,98204.63
2023-01-10T17:37:24.422Z,98206.66
2023-01-10T17:42:28.822Z,98204.72
2023-01-10T17:47:30.391Z,98201.63
2023-01-10T17:52:31.667Z,98202.66
2023-01-10T17:57:38.427Z,98207.00
2023-01-10T18:02:40.668Z,98210.50
2023-01-10T18:07:42.071Z,98210.63
2023-01-10T18:12:44.037Z,98209.06
2023-01-10T18:17:45.735Z,98212.81
2023-01-10T18:23:05.905Z,98213.16
2023-01-10T18:28:07.323Z,98221.88
2023-01-10T18:33:08.644Z,98216.78
2023-01-10T18:38:09.964Z,98222.81
2023-01-10T18:43:15.693Z,98230.53
2023-01-10T18:48:18.131Z,98220.28
2023-01-10T18:53:19.413Z,98219.59
2023-01-10T18:58:20.684Z,98226.34
2023-01-10T19:03:21.902Z,98216.53
2023-01-10T19:08:23.122Z,98229.41
2023-01-10T19:13:24.454Z,98230.25
2023-01-10T19:18:25.697Z,98224.34
2023-01-10T19:23:26.965Z,98219.13
2023-01-10T19:28:40.037Z,98208.03
2023-01-10T19:33:43.158Z,98212.28
2023-01-10T19:38:44.440Z,98203.03
2023-01-10T19:43:45.765Z,98198.63
2023-01-10T19:48:47.054Z,98203.78
2023-01-10T19:53:48.365Z,98205.41
2023-01-10T19:58:49.725Z,98208.03
2023-01-10T20:03:51.078Z,98202.97
2023-01-10T20:08:54.173Z,98211.47
2023-01-10T20:13:55.409Z,98199.50
2023-01-10T20:19:00.139Z,98205.63
2023-01-10T20:24:01.441Z,98209.00
2023-01-10T20:29:04.560Z,98214.19
2023-01-10T20:34:05.827Z,98208.16
2023-01-10T20:39:07.109Z,98209.06
2023-01-10T20:44:08.312Z,98197.22
2023-01-10T20:49:10.495Z,98189.69
2023-01-10T20:54:11.786Z,98187.19
2023-01-10T20:59:13.064Z,98178.59
2023-01-10T21:04:14.348Z,98172.56
2023-01-10T21:09:16.656Z,98164.94
2023-01-10T21:14:17.949Z,98155.53
2023-01-10T21:19:20.480Z,98155.59
2023-01-10T21:24:23.821Z,98172.75
2023-01-10T21:29:25.115Z,98171.03
2023-01-10T21:34:26.490Z,98169.34
2023-01-10T21:39:27.756Z,98173.56
2023-01-10T21:44:29.071Z,98169.25
2023-01-10T21:49:30.645Z,98168.34
2023-01-10T21:54:32.421Z,98160.56
2023-01-10T21:59:34.238Z,98157.03
2023-01-10T22:04:35.543Z,98157.09
2023-01-10T22:09:36.805Z,98145.09
2023-01-10T22:14:38.083Z,98147.63
2023-01-10T22:19:39.365Z,98150.09
2023-01-10T22:24:43.657Z,98153.59
2023-01-10T22:29:45.730Z,98143.22
2023-01-10T22:34:47.088Z,98127.19
2023-01-10T22:39:48.796Z,98121.44
2023-01-10T22:44:50.101Z,98121.53
2023-01-10T22:49:51.518Z,98122.38
2023-01-10T22:54:52.946Z,98114.72
2023-01-10T22:59:54.389Z,98111.34
2023-01-10T23:04:55.666Z,98109.59
2023-01-10T23:09:57.004Z,98111.25
2023-01-10T23:14:59.409Z,98109.47
2023-01-10T23:20:00.696Z,98108.53
2023-01-10T23:25:02.790Z,98087.13
2023-01-10T23:30:04.211Z,98087.97
2023-01-10T23:35:05.629Z,98082.69
2023-01-10T23:40:06.971Z,98073.34
2023-01-10T23:45:08.376Z,98072.47
2023-01-10T23:50:09.704Z,98072.38
2023-01-10T23:55:11.255Z,98060.28
